Time;durP1;ratioP1;P1;durP2;ratioP2;P2;SDS_P1;SDS_P2;PMS_P1;PMS_P2;Temp;Humidity;BMP_temperature;BMP_pressure;BME280_temperature;BME280_humidity;BME280_pressure;Samples;Min_cycle;Max_cycle;Signal;HPM_P1;HPM_P2
2023/03/12 00:04:08;;;;;;;3.95;2.33;;;6.50;98.90;;;;;;10436305;28;20385;-62
2023/03/12 00:09:09;;;;;;;4.10;2.30;;;6.50;98.90;;;;;;10433412;28;20104;-62
2023/03/12 00:14:09;;;;;;;3.47;2.05;;;6.50;98.90;;;;;;10439020;28;20024;-61
2023/03/12 00:19:11;;;;;;;3.75;1.85;;;6.40;98.90;;;;;;10434696;28;20167;-61
2023/03/12 00:24:12;;;;;;;3.40;2.00;;;6.40;98.90;;;;;;10435742;28;20037;-61
2023/03/12 00:29:13;;;;;;;4.05;2.28;;;6.40;98.90;;;;;;10429515;28;20489;-61
2023/03/12 00:34:13;;;;;;;3.00;2.05;;;6.40;98.90;;;;;;10430576;28;20431;-62
2023/03/12 00:39:14;;;;;;;3.97;1.98;;;6.40;98.90;;;;;;10436434;28;20017;-61
2023/03/12 00:44:14;;;;;;;3.97;2.00;;;6.40;98.90;;;;;;10435926;28;20017;-61
2023/03/12 00:49:15;;;;;;;5.22;2.00;;;6.40;98.90;;;;;;10430169;28;20029;-61
2023/03/12 00:54:16;;;;;;;3.30;2.10;;;6.40;98.90;;;;;;10427344;28;20029;-61
2023/03/12 00:59:16;;;;;;;4.97;2.35;;;6.30;98.90;;;;;;10429083;28;20211;-60
2023/03/12 01:04:17;;;;;;;3.40;1.92;;;6.30;98.90;;;;;;10435762;28;20040;-61
2023/03/12 01:09:18;;;;;;;3.38;1.90;;;6.30;98.90;;;;;;10432015;28;20115;-61
2023/03/12 01:14:18;;;;;;;3.70;2.00;;;6.30;98.90;;;;;;10423182;28;20032;-61
2023/03/12 01:19:19;;;;;;;2.90;1.98;;;6.30;98.90;;;;;;10427830;28;20059;-61
2023/03/12 01:24:20;;;;;;;3.92;2.05;;;6.30;98.90;;;;;;10422585;28;20460;-61
2023/03/12 01:29:20;;;;;;;3.58;2.28;;;6.30;98.90;;;;;;10433823;28;20373;-61
2023/03/12 01:34:21;;;;;;;3.22;1.90;;;6.30;98.90;;;;;;10424897;28;20032;-62
2023/03/12 01:39:24;;;;;;;2.60;1.75;;;6.20;98.90;;;;;;10432415;28;20044;-60
2023/03/12 01:44:25;;;;;;;3.90;2.00;;;6.20;98.80;;;;;;10429838;28;20024;-61
2023/03/12 01:49:33;;;;;;;3.05;1.80;;;6.20;98.90;;;;;;10424883;28;20289;-61
2023/03/12 01:54:44;;;;;;;3.58;1.70;;;6.20;98.90;;;;;;10431009;28;20033;-61
2023/03/12 01:59:51;;;;;;;2.55;1.73;;;6.20;98.80;;;;;;10430680;28;20396;-62
2023/03/12 02:05:10;;;;;;;4.35;1.90;;;6.20;98.80;;;;;;10428690;28;20389;-61
2023/03/12 02:10:11;;;;;;;6.25;1.75;;;6.20;98.80;;;;;;10430814;28;20104;-62
2023/03/12 02:15:14;;;;;;;2.42;1.65;;;6.20;98.90;;;;;;10437330;28;20461;-61
2023/03/12 02:20:24;;;;;;;4.40;1.60;;;6.20;98.80;;;;;;10428792;28;20121;-62
2023/03/12 02:25:37;;;;;;;3.47;1.67;;;6.20;98.80;;;;;;10428103;28;20025;-62
2023/03/12 02:30:41;;;;;;;2.95;1.70;;;6.10;98.80;;;;;;10426087;28;20071;-62
2023/03/12 02:35:42;;;;;;;4.00;1.55;;;6.10;98.80;;;;;;10421577;28;20021;-62
2023/03/12 02:40:46;;;;;;;4.07;1.60;;;6.10;98.80;;;;;;10427280;28;20036;-62
2023/03/12 02:45:47;;;;;;;2.50;1.73;;;6.10;98.80;;;;;;10431326;28;20485;-62
2023/03/12 02:50:48;;;;;;;3.35;1.83;;;6.10;98.80;;;;;;10428532;28;20037;-61
2023/03/12 02:55:48;;;;;;;2.72;1.63;;;6.10;98.80;;;;;;10429454;28;20539;-62
2023/03/12 03:00:49;;;;;;;2.20;1.42;;;6.10;98.80;;;;;;10423501;28;20024;-61
2023/03/12 03:05:53;;;;;;;3.45;1.77;;;6.10;98.80;;;;;;10431637;28;20021;-61
2023/03/12 03:10:54;;;;;;;3.08;1.70;;;6.10;98.80;;;;;;10428193;28;20021;-61
2023/03/12 03:15:56;;;;;;;3.72;1.58;;;6.10;98.80;;;;;;10429792;28;20059;-61
2023/03/12 03:20:59;;;;;;;2.67;1.88;;;6.10;98.80;;;;;;10426081;28;20020;-61
2023/03/12 03:25:59;;;;;;;2.80;2.10;;;6.10;98.80;;;;;;10429335;28;20055;-62
2023/03/12 03:31:00;;;;;;;4.32;1.52;;;6.10;98.70;;;;;;10434748;28;20047;-61
2023/03/12 03:36:02;;;;;;;3.90;1.90;;;6.10;98.70;;;;;;10430274;28;20009;-61
2023/03/12 03:41:03;;;;;;;3.65;1.80;;;6.10;98.70;;;;;;10426642;28;20120;-62
2023/03/12 03:46:05;;;;;;;2.97;1.90;;;6.10;98.70;;;;;;10428688;28;20021;-61
2023/03/12 03:51:07;;;;;;;4.35;2.05;;;6.00;98.70;;;;;;10432622;28;20032;-61
2023/03/12 03:56:12;;;;;;;2.70;1.80;;;6.10;98.70;;;;;;10435487;28;20095;-62
2023/03/12 04:01:13;;;;;;;2.25;1.50;;;6.00;98.70;;;;;;10430197;28;20025;-62
2023/03/12 04:06:13;;;;;;;4.32;1.90;;;6.00;98.70;;;;;;10433028;28;20107;-61
2023/03/12 04:11:18;;;;;;;2.67;1.85;;;6.00;98.70;;;;;;10433047;28;20508;-62
2023/03/12 04:16:19;;;;;;;4.10;2.05;;;6.00;98.60;;;;;;10433347;28;20027;-62
2023/03/12 04:21:19;;;;;;;3.13;1.95;;;6.00;98.60;;;;;;10430447;28;20021;-60
2023/03/12 04:26:20;;;;;;;3.10;2.03;;;6.00;98.60;;;;;;10436621;28;20033;-62
2023/03/12 04:31:20;;;;;;;2.88;2.17;;;6.00;98.60;;;;;;10434228;28;20027;-62
2023/03/12 04:36:21;;;;;;;4.80;2.63;;;6.00;98.60;;;;;;10435407;28;20021;-62
2023/03/12 04:41:22;;;;;;;3.92;3.03;;;6.00;98.60;;;;;;10434859;28;20021;-61
2023/03/12 04:46:22;;;;;;;3.22;2.03;;;6.00;98.50;;;;;;10432332;28;20025;-60
2023/03/12 04:51:24;;;;;;;3.70;2.25;;;6.00;98.50;;;;;;10434902;28;20286;-62
2023/03/12 04:56:24;;;;;;;5.28;2.30;;;6.00;98.50;;;;;;10433607;28;20021;-62
2023/03/12 05:01:28;;;;;;;4.13;2.05;;;6.00;98.50;;;;;;10428564;28;20025;-61
2023/03/12 05:06:29;;;;;;;5.03;2.47;;;6.00;98.50;;;;;;10433062;28;20021;-61
2023/03/12 05:11:30;;;;;;;4.30;2.20;;;6.00;98.50;;;;;;10427272;28;20036;-62
2023/03/12 05:16:30;;;;;;;3.72;2.08;;;6.00;98.40;;;;;;10428077;28;20451;-61
2023/03/12 05:21:32;;;;;;;5.47;2.80;;;5.90;98.40;;;;;;10437604;28;20021;-61
2023/03/12 05:26:33;;;;;;;4.65;2.22;;;6.00;98.40;;;;;;10431700;28;20033;-62
2023/03/12 05:31:34;;;;;;;3.50;1.95;;;5.90;98.40;;;;;;10429651;28;20018;-61
2023/03/12 05:36:34;;;;;;;3.45;2.20;;;5.90;98.40;;;;;;10431384;28;20025;-62
2023/03/12 05:41:35;;;;;;;3.88;2.28;;;5.90;98.40;;;;;;10431457;28;20029;-61
2023/03/12 05:46:35;;;;;;;5.47;2.28;;;5.90;98.40;;;;;;10433577;28;20523;-62
2023/03/12 05:51:36;;;;;;;3.60;2.38;;;5.90;98.30;;;;;;10420027;28;20033;-61
2023/03/12 05:56:37;;;;;;;4.38;2.40;;;5.90;98.30;;;;;;10428163;28;20044;-62
2023/03/12 06:01:38;;;;;;;2.88;2.15;;;5.90;98.30;;;;;;10424732;28;20031;-61
2023/03/12 06:06:38;;;;;;;5.65;2.67;;;5.90;98.30;;;;;;10430306;28;20049;-62
2023/03/12 06:11:39;;;;;;;4.65;2.40;;;5.90;98.30;;;;;;10426843;28;20392;-62
2023/03/12 06:16:39;;;;;;;4.55;2.50;;;5.90;98.30;;;;;;10431148;28;20033;-61
2023/03/12 06:21:41;;;;;;;4.90;2.75;;;5.90;98.20;;;;;;10432400;28;20072;-62
2023/03/12 06:26:42;;;;;;;4.35;2.58;;;5.90;98.20;;;;;;10421055;28;20020;-61
2023/03/12 06:31:43;;;;;;;3.53;2.53;;;5.90;98.20;;;;;;10430640;28;20025;-62
2023/03/12 06:36:43;;;;;;;5.72;2.58;;;5.90;98.20;;;;;;10429901;28;20040;-62
2023/03/12 06:41:44;;;;;;;6.25;3.30;;;5.90;98.20;;;;;;10430099;28;20020;-62
2023/03/12 06:46:45;;;;;;;3.53;2.60;;;5.90;98.10;;;;;;10426998;28;20465;-61
2023/03/12 06:51:45;;;;;;;5.35;2.50;;;5.90;98.10;;;;;;10424607;28;20020;-61
2023/03/12 06:56:46;;;;;;;4.88;2.90;;;5.90;98.10;;;;;;10427249;28;20489;-61
2023/03/12 07:01:47;;;;;;;7.43;3.00;;;5.90;98.10;;;;;;10418036;28;20048;-61
2023/03/12 07:06:50;;;;;;;6.55;3.28;;;5.90;98.00;;;;;;10429927;28;20836;-61
2023/03/12 07:11:50;;;;;;;3.75;2.80;;;5.90;98.10;;;;;;10434785;28;20037;-62
2023/03/12 07:16:51;;;;;;;5.85;3.08;;;5.90;98.00;;;;;;10431171;28;20234;-62
2023/03/12 07:21:51;;;;;;;4.10;2.80;;;5.90;98.00;;;;;;10429142;28;20086;-61
2023/03/12 07:26:52;;;;;;;4.57;3.10;;;5.90;98.00;;;;;;10439406;28;20021;-61
2023/03/12 07:31:53;;;;;;;5.07;2.97;;;5.90;98.00;;;;;;10440919;28;20021;-61
2023/03/12 07:36:55;;;;;;;4.30;2.95;;;5.90;98.00;;;;;;10435887;28;20026;-61
2023/03/12 07:41:55;;;;;;;5.05;3.28;;;5.90;98.00;;;;;;10437734;28;20067;-61
2023/03/12 07:46:56;;;;;;;5.32;2.85;;;5.90;98.00;;;;;;10441561;28;20517;-62
2023/03/12 07:51:58;;;;;;;5.32;2.67;;;5.90;98.00;;;;;;10440269;28;20020;-62
2023/03/12 07:56:58;;;;;;;5.97;2.58;;;6.00;98.00;;;;;;10430099;28;20036;-61
2023/03/12 08:01:59;;;;;;;6.82;3.20;;;6.00;98.00;;;;;;10437129;28;20040;-62
2023/03/12 08:07:01;;;;;;;5.13;3.30;;;5.90;97.90;;;;;;10439720;28;20381;-61
2023/03/12 08:12:02;;;;;;;8.18;3.50;;;6.00;97.90;;;;;;10437605;28;20520;-61
2023/03/12 08:17:02;;;;;;;7.03;3.22;;;6.00;97.90;;;;;;10438001;28;20045;-61
2023/03/12 08:22:03;;;;;;;5.07;2.95;;;6.00;97.90;;;;;;10437167;28;20036;-62
2023/03/12 08:27:04;;;;;;;5.10;3.30;;;6.10;98.00;;;;;;10430980;28;20021;-62
2023/03/12 08:32:04;;;;;;;4.50;3.13;;;6.00;97.90;;;;;;10430500;28;20033;-62
2023/03/12 08:37:05;;;;;;;6.38;2.67;;;6.00;97.90;;;;;;10437481;28;20504;-62
2023/03/12 08:42:06;;;;;;;5.13;3.20;;;6.00;97.90;;;;;;10426621;28;20639;-62
2023/03/12 08:47:07;;;;;;;4.68;2.92;;;6.00;97.90;;;;;;10433573;28;20021;-62
2023/03/12 08:52:07;;;;;;;4.30;2.85;;;6.00;97.90;;;;;;10436282;28;20039;-62
2023/03/12 08:57:08;;;;;;;6.03;2.72;;;6.00;97.90;;;;;;10436758;28;20017;-62
2023/03/12 09:02:11;;;;;;;3.47;2.63;;;6.00;97.90;;;;;;10435896;28;20051;-62
2023/03/12 09:07:12;;;;;;;5.28;3.00;;;6.00;97.90;;;;;;10438474;28;20284;-61
2023/03/12 09:12:13;;;;;;;4.68;2.80;;;6.00;97.90;;;;;;10436711;28;20503;-63
2023/03/12 09:17:14;;;;;;;5.82;2.90;;;6.00;97.90;;;;;;10436190;28;20017;-63
2023/03/12 09:22:14;;;;;;;4.47;2.80;;;6.00;97.90;;;;;;10435920;28;20540;-61
2023/03/12 09:27:15;;;;;;;5.32;2.85;;;6.00;97.90;;;;;;10435680;28;20024;-62
2023/03/12 09:32:16;;;;;;;6.00;2.85;;;6.10;98.00;;;;;;10434235;28;20550;-61
2023/03/12 09:37:16;;;;;;;5.15;3.35;;;6.10;98.00;;;;;;10437031;28;20009;-62
2023/03/12 09:42:34;;;;;;;3.72;2.40;;;6.10;98.00;;;;;;10437178;28;20027;-62
2023/03/12 09:47:45;;;;;;;5.57;2.75;;;6.10;98.00;;;;;;10426193;28;20025;-62
2023/03/12 09:52:56;;;;;;;6.03;2.70;;;6.10;98.00;;;;;;10435938;28;20520;-61
2023/03/12 09:57:58;;;;;;;3.22;2.60;;;6.10;98.00;;;;;;10434409;28;20079;-61
2023/03/12 10:03:11;;;;;;;4.68;3.15;;;6.10;98.10;;;;;;10426836;28;20018;-63
2023/03/12 10:08:14;;;;;;;6.97;3.47;;;6.10;98.10;;;;;;10431838;28;20025;-61
2023/03/12 10:13:45;;;;;;;6.30;2.83;;;6.10;98.10;;;;;;10439180;28;20623;-62
2023/03/12 10:19:02;;;;;;;4.68;2.47;;;6.10;98.10;;;;;;10422836;28;20032;-61
2023/03/12 10:24:32;;;;;;;4.80;2.50;;;6.10;98.10;;;;;;10426947;28;20115;-61
2023/03/12 10:29:37;;;;;;;3.67;2.72;;;6.10;98.10;;;;;;10421143;28;20030;-62
2023/03/12 10:34:55;;;;;;;5.28;2.67;;;6.20;98.10;;;;;;10425293;28;20022;-62
2023/03/12 10:39:58;;;;;;;3.58;2.85;;;6.20;98.10;;;;;;10431594;28;20076;-62
2023/03/12 10:45:09;;;;;;;4.22;3.10;;;6.20;98.10;;;;;;10429363;28;20031;-61
2023/03/12 10:50:39;;;;;;;4.47;2.63;;;6.20;98.10;;;;;;10431789;28;20460;-62
2023/03/12 10:55:40;;;;;;;4.30;2.97;;;6.30;98.10;;;;;;10414157;28;20115;-61
2023/03/12 11:00:52;;;;;;;4.45;3.00;;;6.30;98.10;;;;;;10433573;28;20029;-60
2023/03/12 11:05:57;;;;;;;5.57;2.88;;;6.30;98.10;;;;;;10434825;28;20025;-62
2023/03/12 11:10:59;;;;;;;4.13;2.60;;;6.30;98.10;;;;;;10436712;28;20107;-63
2023/03/12 11:16:20;;;;;;;6.50;3.30;;;6.40;98.30;;;;;;10442029;28;20519;-62
2023/03/12 11:21:21;;;;;;;5.97;3.58;;;6.40;98.20;;;;;;10440362;28;20060;-61
2023/03/12 11:26:41;;;;;;;4.97;2.88;;;6.50;98.30;;;;;;10441895;28;20100;-61
2023/03/12 11:31:52;;;;;;;7.68;2.80;;;6.50;98.30;;;;;;10436130;28;20051;-62
2023/03/12 11:37:03;;;;;;;6.28;2.95;;;6.50;98.30;;;;;;10431908;28;20033;-62
2023/03/12 11:42:22;;;;;;;6.55;3.65;;;6.50;98.30;;;;;;10437284;28;20112;-61
2023/03/12 11:47:32;;;;;;;6.18;3.55;;;6.60;98.40;;;;;;10438289;28;20428;-62
2023/03/12 11:53:10;;;;;;;5.43;3.08;;;6.60;98.40;;;;;;10437434;28;20030;-61
2023/03/12 11:58:28;;;;;;;6.83;2.90;;;6.70;98.50;;;;;;10438169;28;20021;-60
2023/03/12 12:03:33;;;;;;;18.10;4.83;;;6.70;98.50;;;;;;10436264;28;20021;-61
2023/03/12 12:08:48;;;;;;;13.85;3.92;;;6.80;98.70;;;;;;10432531;28;20410;-60
2023/03/12 12:13:55;;;;;;;11.55;3.78;;;6.80;98.80;;;;;;10433336;28;20033;-61
2023/03/12 12:19:21;;;;;;;10.23;4.00;;;6.90;98.70;;;;;;10432951;28;20032;-61
2023/03/12 12:24:28;;;;;;;9.65;3.35;;;6.90;98.90;;;;;;10426212;28;20519;-61
2023/03/12 12:29:37;;;;;;;7.18;3.47;;;6.90;99.10;;;;;;10434309;28;20060;-62
2023/03/12 12:34:43;;;;;;;9.55;3.92;;;6.90;98.80;;;;;;10426519;28;20025;-62
2023/03/12 12:40:10;;;;;;;7.93;3.78;;;7.00;98.90;;;;;;10435134;28;20076;-61
2023/03/12 12:45:13;;;;;;;6.70;4.03;;;7.00;99.10;;;;;;10418386;28;20098;-63
2023/03/12 12:50:24;;;;;;;10.70;4.22;;;7.00;99.00;;;;;;10426102;28;20048;-62
2023/03/12 12:55:34;;;;;;;10.18;4.05;;;7.10;99.10;;;;;;10432177;28;20028;-60
2023/03/12 13:00:52;;;;;;;;;;;7.10;99.10;;;;;;10429405;28;20033;-62
2023/03/12 13:05:56;;;;;;;11.13;4.15;;;7.20;99.90;;;;;;10430135;28;20046;-64
2023/03/12 13:10:56;;;;;;;9.18;4.20;;;7.20;99.20;;;;;;10430398;28;20111;-62
2023/03/12 13:16:16;;;;;;;9.15;4.63;;;7.30;99.50;;;;;;10428955;28;20434;-62
2023/03/12 13:21:43;;;;;;;8.70;3.85;;;7.30;99.80;;;;;;10426001;28;20025;-62
2023/03/12 13:27:04;;;;;;;9.60;4.38;;;7.40;99.80;;;;;;10422831;28;20034;-62
2023/03/12 13:32:27;;;;;;;11.07;4.05;;;7.40;99.70;;;;;;10429834;28;20039;-62
2023/03/12 13:37:55;;;;;;;11.18;4.40;;;7.40;99.60;;;;;;10429781;28;20033;-61
2023/03/12 13:43:12;;;;;;;18.70;5.40;;;7.50;99.90;;;;;;10431330;28;20037;-62
2023/03/12 13:48:16;;;;;;;10.98;4.28;;;7.50;99.80;;;;;;10423401;28;20306;-62
2023/03/12 13:53:35;;;;;;;10.85;4.13;;;7.50;99.70;;;;;;10431335;28;20025;-62
2023/03/12 13:58:56;;;;;;;13.57;4.25;;;7.50;99.90;;;;;;10425967;28;20082;-62
2023/03/12 14:04:11;;;;;;;9.55;4.28;;;7.50;99.90;;;;;;10434372;28;20032;-62
2023/03/12 14:09:38;;;;;;;10.30;3.85;;;7.60;99.90;;;;;;10428842;28;20060;-63
2023/03/12 14:14:42;;;;;;;11.05;4.50;;;7.60;99.90;;;;;;10426737;28;20021;-62
2023/03/12 14:19:48;;;;;;;8.38;3.50;;;7.60;99.80;;;;;;10432157;28;20500;-61
2023/03/12 14:25:03;;;;;;;10.23;3.70;;;7.60;99.80;;;;;;10429453;28;20445;-62
2023/03/12 14:30:11;;;;;;;7.53;4.22;;;7.60;99.90;;;;;;10431576;28;20025;-61
2023/03/12 14:35:27;;;;;;;10.80;3.55;;;7.70;99.90;;;;;;10425417;28;20039;-62
2023/03/12 14:40:49;;;;;;;8.85;3.40;;;7.60;99.90;;;;;;10428102;28;20078;-61
2023/03/12 14:45:55;;;;;;;11.38;4.30;;;7.70;99.90;;;;;;10425754;28;20033;-63
2023/03/12 14:50:57;;;;;;;9.93;3.80;;;7.80;99.90;;;;;;10423853;28;20124;-63
2023/03/12 14:56:23;;;;;;;9.85;3.40;;;7.80;99.90;;;;;;10425415;28;20033;-61
2023/03/12 15:01:28;;;;;;;13.02;3.63;;;7.80;99.90;;;;;;10428147;28;20025;-61
2023/03/12 15:06:36;;;;;;;10.18;3.10;;;7.80;99.90;;;;;;10426022;28;20437;-62
2023/03/12 15:11:38;;;;;;;6.32;3.10;;;7.90;99.90;;;;;;10431989;28;20025;-62
2023/03/12 15:16:39;;;;;;;11.15;3.42;;;7.90;99.90;;;;;;10427391;28;20385;-60
2023/03/12 15:21:40;;;;;;;12.07;3.78;;;7.90;99.90;;;;;;10430640;28;20039;-62
2023/03/12 15:26:42;;;;;;;8.32;3.28;;;7.90;99.90;;;;;;10431594;28;20287;-62
2023/03/12 15:31:45;;;;;;;9.50;2.92;;;7.90;99.90;;;;;;10429028;28;20151;-62
2023/03/12 15:36:48;;;;;;;11.00;3.05;;;7.90;99.90;;;;;;10429304;28;20029;-62
2023/03/12 15:41:49;;;;;;;9.52;2.78;;;8.00;99.90;;;;;;10429148;28;20056;-62
2023/03/12 15:47:03;;;;;;;9.57;3.25;;;8.00;99.90;;;;;;10435692;28;20065;-61
2023/03/12 15:52:20;;;;;;;8.65;2.95;;;8.00;99.90;;;;;;10435361;28;20031;-61
2023/03/12 15:57:23;;;;;;;11.07;3.20;;;8.00;99.90;;;;;;10433737;28;20222;-61
2023/03/12 16:02:35;;;;;;;9.45;3.40;;;8.00;99.90;;;;;;10431896;28;20033;-61
2023/03/12 16:07:36;;;;;;;9.02;3.05;;;8.00;99.90;;;;;;10432134;28;20084;-61
2023/03/12 16:12:37;;;;;;;11.32;3.10;;;8.00;99.90;;;;;;10435460;28;20703;-63
2023/03/12 16:17:37;;;;;;;9.13;2.72;;;8.10;99.90;;;;;;10437883;28;20116;-61
2023/03/12 16:22:39;;;;;;;10.10;3.35;;;8.10;99.90;;;;;;10435099;28;20123;-63
2023/03/12 16:28:02;;;;;;;11.98;2.58;;;8.10;99.90;;;;;;10427840;28;20021;-64
2023/03/12 16:33:04;;;;;;;15.57;3.03;;;8.10;99.90;;;;;;10433963;28;20028;-63
2023/03/12 16:38:06;;;;;;;12.13;3.33;;;8.10;99.90;;;;;;10437926;28;20484;-64
2023/03/12 16:43:15;;;;;;;13.68;2.78;;;8.10;99.90;;;;;;10439683;28;20390;-64
2023/03/12 16:48:20;;;;;;;12.32;2.55;;;8.10;99.90;;;;;;10433513;28;20485;-63
2023/03/12 16:53:21;;;;;;;15.02;3.00;;;8.20;99.90;;;;;;10436323;28;20477;-63
2023/03/12 16:58:23;;;;;;;15.00;3.10;;;8.20;99.90;;;;;;10428864;28;20278;-63
2023/03/12 17:03:32;;;;;;;14.73;3.33;;;8.20;99.90;;;;;;10431303;28;20567;-64
2023/03/12 17:08:34;;;;;;;20.60;3.45;;;8.20;99.90;;;;;;10430857;28;20036;-63
2023/03/12 17:13:35;;;;;;;13.93;2.60;;;8.20;99.90;;;;;;10434601;28;20432;-64
2023/03/12 17:18:36;;;;;;;13.65;3.38;;;8.20;99.90;;;;;;10432697;28;20021;-64
2023/03/12 17:23:37;;;;;;;14.05;2.65;;;8.20;99.90;;;;;;10436669;28;20315;-64
2023/03/12 17:28:37;;;;;;;13.45;3.60;;;8.20;99.90;;;;;;10432024;28;20017;-64
2023/03/12 17:33:38;;;;;;;10.52;2.50;;;8.20;99.90;;;;;;10423618;28;20028;-63
2023/03/12 17:38:39;;;;;;;19.77;3.03;;;8.20;99.90;;;;;;10427067;28;20031;-64
2023/03/12 17:43:40;;;;;;;13.57;3.20;;;8.20;99.90;;;;;;10433792;28;20029;-63
2023/03/12 17:48:41;;;;;;;9.25;2.22;;;8.20;99.90;;;;;;10427079;28;20024;-63
2023/03/12 17:53:41;;;;;;;9.90;2.67;;;8.20;99.90;;;;;;10429425;28;20017;-64
2023/03/12 17:58:43;;;;;;;6.57;2.35;;;8.20;99.90;;;;;;10431057;28;20607;-64
2023/03/12 18:03:43;;;;;;;15.50;3.47;;;8.20;99.90;;;;;;10427626;28;20144;-63
2023/03/12 18:08:44;;;;;;;17.60;2.95;;;8.30;99.90;;;;;;10428552;28;20396;-65
2023/03/12 18:13:47;;;;;;;12.85;2.95;;;8.40;99.90;;;;;;10426996;28;20108;-64
2023/03/12 18:18:47;;;;;;;11.52;3.55;;;8.50;99.90;;;;;;10428988;28;20272;-64
2023/03/12 18:23:48;;;;;;;8.48;2.47;;;8.50;99.90;;;;;;10421767;28;20256;-64
2023/03/12 18:28:48;;;;;;;11.20;2.47;;;8.50;99.90;;;;;;10430691;28;20082;-64
2023/03/12 18:33:49;;;;;;;9.10;2.53;;;8.50;99.90;;;;;;10421979;28;20032;-64
2023/03/12 18:38:50;;;;;;;11.18;3.10;;;8.50;99.90;;;;;;10432097;28;20060;-64
2023/03/12 18:43:52;;;;;;;12.85;2.60;;;8.40;99.90;;;;;;10428579;28;20028;-64
2023/03/12 18:48:53;;;;;;;7.47;2.05;;;8.40;99.90;;;;;;10428441;28;20033;-63
2023/03/12 18:53:53;;;;;;;13.63;2.55;;;8.40;99.90;;;;;;10421109;28;20521;-65
2023/03/12 18:58:54;;;;;;;7.30;2.25;;;8.40;99.90;;;;;;10427756;28;20045;-64
2023/03/12 19:03:55;;;;;;;9.95;1.92;;;8.40;99.90;;;;;;10428994;28;20021;-64
2023/03/12 19:08:55;;;;;;;6.78;2.42;;;8.40;99.90;;;;;;10429192;28;20025;-64
2023/03/12 19:13:56;;;;;;;10.50;2.58;;;8.50;99.90;;;;;;10432339;28;20549;-63
2023/03/12 19:18:57;;;;;;;7.38;2.30;;;8.50;99.90;;;;;;10433170;28;20029;-64
2023/03/12 19:23:57;;;;;;;7.78;2.42;;;8.50;99.90;;;;;;10440657;28;20431;-64
2023/03/12 19:28:58;;;;;;;11.88;2.63;;;8.50;99.90;;;;;;10440655;28;20493;-64
2023/03/12 19:33:58;;;;;;;14.45;3.08;;;8.50;99.90;;;;;;10434984;28;20086;-63
2023/03/12 19:39:07;;;;;;;12.27;2.67;;;8.50;99.90;;;;;;10434766;28;20036;-65
2023/03/12 19:44:07;;;;;;;10.77;1.98;;;8.50;99.90;;;;;;10439290;28;20017;-64
2023/03/12 19:49:08;;;;;;;11.07;2.42;;;8.50;99.90;;;;;;10439559;28;20029;-64
2023/03/12 19:54:08;;;;;;;8.63;2.47;;;8.50;99.90;;;;;;10436385;28;20032;-64
2023/03/12 19:59:09;;;;;;;8.70;2.47;;;8.50;99.90;;;;;;10432539;28;20500;-64
2023/03/12 20:04:10;;;;;;;14.07;2.47;;;8.50;99.90;;;;;;10431687;28;20550;-64
2023/03/12 20:09:11;;;;;;;7.68;2.05;;;8.40;99.90;;;;;;10423749;28;20095;-64
2023/03/12 20:14:11;;;;;;;4.75;1.88;;;8.40;99.90;;;;;;10434647;28;20480;-65
2023/03/12 20:19:12;;;;;;;6.35;2.15;;;8.40;99.90;;;;;;10428717;28;20585;-64
2023/03/12 20:24:16;;;;;;;13.80;1.73;;;8.40;99.90;;;;;;10429613;28;20032;-64
2023/03/12 20:29:17;;;;;;;9.88;2.38;;;8.50;99.90;;;;;;10426445;28;20036;-64
2023/03/12 20:34:17;;;;;;;7.75;2.78;;;8.40;99.90;;;;;;10426707;28;20013;-64
2023/03/12 20:39:18;;;;;;;7.28;2.15;;;8.50;99.90;;;;;;10432881;28;20036;-64
2023/03/12 20:44:19;;;;;;;9.43;2.10;;;8.50;99.90;;;;;;10430988;28;20512;-64
2023/03/12 20:49:19;;;;;;;4.80;2.00;;;8.40;99.90;;;;;;10432491;28;20036;-64
2023/03/12 20:54:20;;;;;;;4.80;2.00;;;8.50;99.90;;;;;;10431396;28;20524;-63
2023/03/12 20:59:21;;;;;;;7.72;2.03;;;8.50;99.90;;;;;;10431445;28;20017;-64
2023/03/12 21:04:21;;;;;;;9.88;2.55;;;8.50;99.90;;;;;;10431131;28;20017;-64
2023/03/12 21:09:22;;;;;;;4.95;2.10;;;8.50;99.90;;;;;;10426835;28;20029;-64
2023/03/12 21:14:23;;;;;;;6.78;2.00;;;8.50;99.90;;;;;;10429597;28;20027;-64
2023/03/12 21:19:25;;;;;;;6.78;1.63;;;8.40;99.90;;;;;;10423173;28;20036;-63
2023/03/12 21:24:26;;;;;;;5.72;1.75;;;8.50;99.90;;;;;;10433731;28;20028;-64
2023/03/12 21:29:27;;;;;;;6.60;1.75;;;8.40;99.90;;;;;;10427532;28;20028;-64
2023/03/12 21:34:28;;;;;;;5.97;1.98;;;8.50;99.90;;;;;;10425870;28;20025;-65
2023/03/12 21:39:28;;;;;;;6.78;1.83;;;8.50;99.90;;;;;;10425178;28;20029;-64
2023/03/12 21:44:29;;;;;;;5.25;2.03;;;8.50;99.90;;;;;;10429559;28;20032;-65
2023/03/12 21:49:33;;;;;;;9.13;1.88;;;8.50;99.90;;;;;;10424111;28;20025;-63
2023/03/12 21:54:34;;;;;;;5.55;1.50;;;8.50;99.90;;;;;;10430579;28;20566;-65
2023/03/12 21:59:35;;;;;;;5.13;1.40;;;8.50;99.90;;;;;;10432365;28;20447;-65
2023/03/12 22:04:35;;;;;;;7.18;1.60;;;8.50;99.90;;;;;;10430163;28;20029;-63
2023/03/12 22:09:36;;;;;;;5.72;1.42;;;8.50;99.90;;;;;;10423578;28;20152;-64
2023/03/12 22:14:36;;;;;;;7.70;2.10;;;8.50;99.90;;;;;;10426581;28;20021;-64
2023/03/12 22:19:37;;;;;;;6.53;2.05;;;8.50;99.90;;;;;;10426535;28;20378;-65
2023/03/12 22:24:38;;;;;;;8.00;2.20;;;8.50;99.90;;;;;;10421778;28;20030;-64
2023/03/12 22:29:38;;;;;;;4.35;1.50;;;8.50;99.90;;;;;;10425369;28;20029;-63
2023/03/12 22:34:39;;;;;;;5.13;1.73;;;8.50;99.90;;;;;;10423208;28;20036;-64
2023/03/12 22:39:41;;;;;;;9.23;2.67;;;8.50;99.90;;;;;;10422784;28;20096;-64
2023/03/12 22:44:42;;;;;;;6.72;2.15;;;8.50;99.90;;;;;;10421500;28;20499;-65
2023/03/12 22:49:45;;;;;;;9.30;1.90;;;8.50;99.90;;;;;;10427738;28;20029;-65
2023/03/12 22:54:46;;;;;;;7.80;1.80;;;8.60;99.90;;;;;;10427692;28;20299;-64
2023/03/12 22:59:47;;;;;;;9.45;2.05;;;8.60;99.90;;;;;;10431638;28;20029;-65
2023/03/12 23:04:47;;;;;;;8.63;2.30;;;8.60;99.90;;;;;;10431526;28;20017;-64
2023/03/12 23:09:48;;;;;;;8.55;2.42;;;8.60;99.90;;;;;;10425440;28;20033;-65
2023/03/12 23:14:48;;;;;;;9.35;2.33;;;8.60;99.90;;;;;;10429285;28;20029;-65
2023/03/12 23:19:49;;;;;;;7.47;2.22;;;8.60;99.90;;;;;;10419654;28;20455;-65
2023/03/12 23:24:50;;;;;;;10.40;2.50;;;8.90;99.90;;;;;;10427927;28;20087;-65
2023/03/12 23:29:50;;;;;;;6.13;2.13;;;8.60;99.90;;;;;;10429860;28;20259;-65
2023/03/12 23:34:51;;;;;;;7.55;2.30;;;8.60;99.90;;;;;;10424007;28;20528;-64
2023/03/12 23:39:51;;;;;;;8.07;2.28;;;8.60;99.90;;;;;;10421675;28;20433;-65
2023/03/12 23:44:52;;;;;;;12.32;2.70;;;8.60;99.90;;;;;;10422028;28;20024;-64
2023/03/12 23:49:53;;;;;;;13.52;2.63;;;8.60;99.90;;;;;;10425665;28;20497;-64
2023/03/12 23:54:53;;;;;;;7.78;2.50;;;8.60;99.90;;;;;;10426545;28;20025;-64
2023/03/12 23:59:54;;;;;;;10.93;2.88;;;8.60;99.90;;;;;;10424990;28;20136;-63
